SVMI Informações do Aeroporto

Informações da Pista
Pista 09 Comprimento 9930 ft Largura 145 ft
Elevação 230 ft Limite 0 ft Heading 76
Pista 27 Comprimento 9930 ft Largura 145 ft
Elevação 101 ft Limite 0 ft Heading 256
Pista 10 Comprimento 11483 ft Largura 148 ft
Elevação 235 ft Limite 0 ft Heading 88
Pista 28 Comprimento 11483 ft Largura 148 ft
Elevação 147 ft Limite 0 ft Heading 268
Frequências do Aeroporto
Tipo APP Nome MAIQUETIA Frequência 120.1 MHZ
Tipo ATIS Nome ATIS Frequência 114.8 MHZ
Tipo CLD Nome CLD Frequência 119.5 MHZ
Tipo DEP Nome MAIQUETIA Frequência 118.4 MHZ
Tipo GND Nome GND Frequência 121.9 MHZ
Tipo RDO Nome MAIQUETIA Frequência 130.1 MHZ
Tipo TWR Nome MAIQUETIA Frequência 118.1 MHZ
Navaids do Aeroporto
Tipo VOR-DME Nome Maiquetia Frequência 114800 KHZ
Tipo NDB Nome Maiquetia Frequência 292 KHZ
Informações meteorológicas do aeroporto e NOTAM
ADDS - METARS form results

(1557 UTC 10 December 2019)
Data provider http://aviationweather.gov/metar/data/
 
METAR text: SVMI 101502Z AUTO 07012KT NCD 28/22 Q1015
Conditions at: SVMI (CARACAS/S. BOLIV, VE) observed 1502 UTC 10 December 2019
Temperature: 28.0°C (82°F)
Dewpoint: 22.0°C (72°F) [RH = 70%]
Pressure (altimeter): 29.97 inches Hg (1015.0 mb)
Winds: from the ENE (70 degrees) at 14 MPH (12 knots; 6.2 m/s)
Visibility: missing
Ceiling: at least 12,000 feet AGL
Clouds: sky clear below 12,000 feet AGL
Weather: no significant weather observed at this time

METAR text: SVMI 101500Z 09002KT 99969 FEW016 28/22 Q1011
Conditions at: SVMI (CARACAS/S. BOLIV, VE) observed 1500 UTC 10 December 2019
Temperature: 28.0°C (82°F)
Dewpoint: 22.0°C (72°F) [RH = 70%]
Pressure (altimeter): 29.85 inches Hg (1011.0 mb)
Winds: from the E (90 degrees) at 2 MPH (2 knots; 1.0 m/s)
Visibility: 6 miles (10 km)
Ceiling: at least 12,000 feet AGL
Clouds: few clouds at 1600 feet AGL
Weather: no significant weather observed at this time

Forecast for: SVMI (CARACAS/S. BOLIV, VE)
Text: TAF SVMI 101100Z 1013/1113 0000KT 9999 FEW016 TX26/18Z TN22/08Z
Forecast period: 1300 UTC 10 December 2019 to 1300 UTC 11 December 2019
Forecast type: FROM: standard forecast or significant change
Visibility: 6 or more miles 10+ km)
Ceiling: at least 12,000 feet AGL
Clouds: few clouds at 1600 feet AGL
Weather: no significant weather forecast for this period
Text: TEMPO 1013/1016 10002KT 9999 FEW016
Forecast period: 1300 to 1600 UTC 10 December 2019
Forecast type: TEMPORARY: The following changes expected for less than half the time period
Winds: from the E (100 degrees) at 2 MPH (2 knots; 1.0 m/s)
Visibility: 6 or more miles 10+ km)
Ceiling: at least 12,000 feet AGL
Clouds: few clouds at 1600 feet AGL
Weather: no significant weather forecast for this period